Terminal Aerodrome Forecast
Issued by NWS Flagstaff, AZ

Home | Current Version | Previous Version | Text Only | Print | Product List | Glossary On
Versions: 1 2 3 4 5 6 7 8 9 10 11 12 13 14 15 16 17 18 19 20 21
000
FTUS45 KFGZ 260741 AAB
TAFFLG
TAF AMD
KFLG 260741Z 2608/2706 VRB05KT P6SM SCT060
      TEMPO 2608/2609 26010G15KT 5SM -TSRA BKN040CB
     FM261800 22008G15KT P6SM BKN060
      TEMPO 2619/2623 VRB10G20KT 5SM TSRA BKN040CB
     FM270200 VRB05KT P6SM SCT060=

USA.gov is the U.S. government's official web portal to all federal, state and local government web resources and services.